LZKZ/KSC METAR and TAF weather

Enter ICAO airport designator
Station Type Date Time Source
LZKZ METAR 2019/08/21 22:30 UTC NOAA

LZKZ 212230Z 36017KT CAVOK 18/12 Q1025


Station Type Date Time Source
LZKZ Decoded METAR 2019/08/21 22:30 UTC NOAA

Station name not available
Aug 21, 2019 - 06:30 PM EDT / 2019.08.21 2230 UTC
Wind: from the N (360 degrees) at 20 MPH (17 KT):0
Visibility: greater than 7 mile(s):0
Temperature: 64 F (18 C)
Dew Point: 53 F (12 C)
Relative Humidity: 67%
Pressure (altimeter): 30.27 in. Hg (1025 hPa)
ob: LZKZ 212230Z 36017KT CAVOK 18/12 Q1025
cycle: 22

Station Type Date Time Source
LZKZ TAF 2019/08/21 18:45 UTC NOAA

TAF LZKZ 211700Z 2118/2218 01020KT CAVOK
TEMPO 2118/2208 01023G35KT
BECMG 2212/2214 01013KT

Example: see airport list